DKH1857 ZSPD-ZGGG
Flight info
| Callsign | DKH1857 |
|---|---|
| Flight time | 1h 56m |
| Altitude | 30100 |
| Route | NXD W131 AKDIM A470 DUBGO W134 ELNEX A599 PLT W19 OLPAB |
| Aircraft | A321/M-SDE2E3FGILRWXY/LB2 |
Departure
| Time | 2026-05-05 09:19 |
|---|---|
| Airport | Shanghai Pudong International Airport (ZSPD) |
Arrival
| Time | 2026-05-05 11:16 |
|---|---|
| Airport | Guangzhou Baiyun International Airport (ZGGG) |
| Time | Latitude | Longitude | Altitude | Speed | Heading |
|---|---|---|---|---|---|
| 2026-05-05 08:51 | 31.13929 | 121.80295 | 25 ft | 0 kts | 252° |
| 2026-05-05 09:02 | 31.13930 | 121.80298 | 24 ft | 1 kts | 252° |
| 2026-05-05 09:02 | 31.13935 | 121.80318 | 24 ft | 3 kts | 258° |
| 2026-05-05 09:02 | 31.13938 | 121.80341 | 24 ft | 3 kts | 267° |
| 2026-05-05 09:03 | 31.13937 | 121.80364 | 24 ft | 3 kts | 285° |
| 2026-05-05 09:03 | 31.13930 | 121.80383 | 24 ft | 3 kts | 323° |
| 2026-05-05 09:03 | 31.13921 | 121.80389 | 24 ft | 1 kts | 342° |
| 2026-05-05 09:03 | 31.13919 | 121.80390 | 24 ft | 0 kts | 342° |
| 2026-05-05 09:10 | 31.13920 | 121.80390 | 24 ft | 0 kts | 342° |
| 2026-05-05 09:10 | 31.13928 | 121.80387 | 24 ft | 2 kts | 342° |
| 2026-05-05 09:10 | 31.13952 | 121.80377 | 24 ft | 5 kts | 342° |
| 2026-05-05 09:11 | 31.13992 | 121.80362 | 24 ft | 7 kts | 342° |
| 2026-05-05 09:11 | 31.14048 | 121.80341 | 24 ft | 9 kts | 342° |
| 2026-05-05 09:11 | 31.14116 | 121.80316 | 24 ft | 9 kts | 342° |
| 2026-05-05 09:11 | 31.14182 | 121.80300 | 24 ft | 10 kts | 8° |
| 2026-05-05 09:12 | 31.14225 | 121.80368 | 24 ft | 12 kts | 72° |
| 2026-05-05 09:12 | 31.14253 | 121.80471 | 24 ft | 14 kts | 72° |
| 2026-05-05 09:12 | 31.14285 | 121.80590 | 24 ft | 16 kts | 72° |
| 2026-05-05 09:12 | 31.14322 | 121.80723 | 24 ft | 18 kts | 72° |
| 2026-05-05 09:13 | 31.14362 | 121.80865 | 24 ft | 16 kts | 72° |
| 2026-05-05 09:13 | 31.14393 | 121.80978 | 24 ft | 11 kts | 72° |
| 2026-05-05 09:13 | 31.14419 | 121.81072 | 24 ft | 13 kts | 72° |
| 2026-05-05 09:13 | 31.14449 | 121.81179 | 24 ft | 15 kts | 72° |
| 2026-05-05 09:14 | 31.14480 | 121.81289 | 24 ft | 14 kts | 72° |
| 2026-05-05 09:14 | 31.14505 | 121.81378 | 24 ft | 10 kts | 72° |
| 2026-05-05 09:14 | 31.14534 | 121.81448 | 24 ft | 10 kts | 36° |
| 2026-05-05 09:14 | 31.14584 | 121.81453 | 24 ft | 7 kts | 338° |
| 2026-05-05 09:15 | 31.14633 | 121.81426 | 24 ft | 9 kts | 335° |
| 2026-05-05 09:15 | 31.14700 | 121.81394 | 24 ft | 12 kts | 341° |
| 2026-05-05 09:15 | 31.14785 | 121.81361 | 24 ft | 14 kts | 341° |
| 2026-05-05 09:15 | 31.14885 | 121.81324 | 24 ft | 16 kts | 343° |
| 2026-05-05 09:16 | 31.15000 | 121.81281 | 24 ft | 19 kts | 341° |
| 2026-05-05 09:16 | 31.15131 | 121.81231 | 24 ft | 18 kts | 342° |
| 2026-05-05 09:16 | 31.15253 | 121.81185 | 24 ft | 20 kts | 342° |
| 2026-05-05 09:16 | 31.15330 | 121.81155 | 24 ft | 14 kts | 342° |
| 2026-05-05 09:17 | 31.15467 | 121.81104 | 24 ft | 16 kts | 342° |
| 2026-05-05 09:17 | 31.15551 | 121.81072 | 24 ft | 15 kts | 342° |
| 2026-05-05 09:17 | 31.15644 | 121.81037 | 24 ft | 13 kts | 342° |
| 2026-05-05 09:17 | 31.15732 | 121.81004 | 24 ft | 14 kts | 342° |
| 2026-05-05 09:18 | 31.15816 | 121.80989 | 24 ft | 12 kts | 24° |
| 2026-05-05 09:18 | 31.15854 | 121.81060 | 24 ft | 10 kts | 69° |
| 2026-05-05 09:18 | 31.15864 | 121.81142 | 24 ft | 11 kts | 116° |
| 2026-05-05 09:18 | 31.15800 | 121.81200 | 24 ft | 14 kts | 161° |
| 2026-05-05 09:19 | 31.15583 | 121.81285 | 25 ft | 64 kts | 161° |
| 2026-05-05 09:19 | 31.14938 | 121.81528 | 25 ft | 128 kts | 161° |
| 2026-05-05 09:19 | 31.13936 | 121.81899 | 155 ft | 161 kts | 162° |
| 2026-05-05 09:19 | 31.12890 | 121.82280 | 890 ft | 155 kts | 162° |
| 2026-05-05 09:20 | 31.11816 | 121.82691 | 1383 ft | 168 kts | 161° |
| 2026-05-05 09:20 | 31.10671 | 121.83141 | 1831 ft | 183 kts | 162° |
| 2026-05-05 09:20 | 31.09467 | 121.83798 | 2218 ft | 199 kts | 149° |
| 2026-05-05 09:20 | 31.08287 | 121.84789 | 2504 ft | 221 kts | 144° |
| 2026-05-05 09:21 | 31.07012 | 121.85911 | 2873 ft | 239 kts | 146° |
| 2026-05-05 09:21 | 31.05619 | 121.87079 | 3349 ft | 253 kts | 147° |
| 2026-05-05 09:21 | 31.04070 | 121.88082 | 3964 ft | 259 kts | 162° |
| 2026-05-05 09:21 | 31.02287 | 121.88238 | 4632 ft | 261 kts | 192° |
| 2026-05-05 09:22 | 31.00667 | 121.87296 | 5296 ft | 266 kts | 222° |
| 2026-05-05 09:22 | 30.99647 | 121.85494 | 5939 ft | 271 kts | 250° |
| 2026-05-05 09:22 | 30.99120 | 121.83374 | 6635 ft | 275 kts | 255° |
| 2026-05-05 09:22 | 30.98645 | 121.81203 | 7307 ft | 278 kts | 255° |
| 2026-05-05 09:23 | 30.98102 | 121.79024 | 7982 ft | 282 kts | 252° |
| 2026-05-05 09:23 | 30.97502 | 121.76864 | 8629 ft | 285 kts | 252° |
| 2026-05-05 09:23 | 30.96873 | 121.74662 | 9286 ft | 288 kts | 252° |
| 2026-05-05 09:23 | 30.96314 | 121.72416 | 9938 ft | 290 kts | 261° |
| 2026-05-05 09:24 | 30.96324 | 121.70059 | 10505 ft | 296 kts | 278° |
| 2026-05-05 09:24 | 30.96745 | 121.67667 | 10886 ft | 309 kts | 283° |
| 2026-05-05 09:24 | 30.97288 | 121.65170 | 11102 ft | 327 kts | 284° |
| 2026-05-05 09:24 | 30.97860 | 121.62527 | 11303 ft | 344 kts | 283° |
| 2026-05-05 09:25 | 30.98413 | 121.59745 | 11497 ft | 361 kts | 282° |
| 2026-05-05 09:25 | 30.98946 | 121.56839 | 11827 ft | 371 kts | 281° |
| 2026-05-05 09:25 | 30.99470 | 121.53888 | 12432 ft | 370 kts | 281° |
| 2026-05-05 09:25 | 30.99994 | 121.50945 | 12776 ft | 373 kts | 282° |
| 2026-05-05 09:26 | 31.00529 | 121.48000 | 12786 ft | 372 kts | 282° |
| 2026-05-05 09:26 | 31.01074 | 121.45052 | 12812 ft | 372 kts | 282° |
| 2026-05-05 09:26 | 31.01622 | 121.42113 | 13125 ft | 372 kts | 282° |
| 2026-05-05 09:26 | 31.02171 | 121.39142 | 13688 ft | 375 kts | 282° |
| 2026-05-05 09:27 | 31.02715 | 121.36165 | 14257 ft | 377 kts | 282° |
| 2026-05-05 09:27 | 31.03262 | 121.33162 | 14826 ft | 380 kts | 282° |
| 2026-05-05 09:27 | 31.03815 | 121.30147 | 15397 ft | 381 kts | 282° |
| 2026-05-05 09:27 | 31.04371 | 121.27111 | 15938 ft | 384 kts | 282° |
| 2026-05-05 09:28 | 31.04928 | 121.24065 | 16473 ft | 386 kts | 282° |
| 2026-05-05 09:28 | 31.05488 | 121.20991 | 16992 ft | 388 kts | 282° |
| 2026-05-05 09:28 | 31.06049 | 121.17912 | 17495 ft | 390 kts | 282° |
| 2026-05-05 09:28 | 31.06572 | 121.14799 | 17980 ft | 392 kts | 277° |
| 2026-05-05 09:29 | 31.06668 | 121.11626 | 18439 ft | 394 kts | 265° |
| 2026-05-05 09:29 | 31.06154 | 121.08521 | 18908 ft | 396 kts | 256° |
| 2026-05-05 09:29 | 31.05354 | 121.05397 | 19359 ft | 399 kts | 253° |
| 2026-05-05 09:29 | 31.04501 | 121.02303 | 19798 ft | 401 kts | 253° |
| 2026-05-05 09:30 | 31.03672 | 120.99233 | 20223 ft | 403 kts | 253° |
| 2026-05-05 09:30 | 31.02876 | 120.96089 | 20607 ft | 406 kts | 255° |
| 2026-05-05 09:30 | 31.02113 | 120.92923 | 20668 ft | 405 kts | 255° |
| 2026-05-05 09:30 | 31.01358 | 120.89765 | 20666 ft | 405 kts | 255° |
| 2026-05-05 09:31 | 31.00588 | 120.86612 | 20665 ft | 405 kts | 255° |
| 2026-05-05 09:31 | 30.99802 | 120.83455 | 20664 ft | 405 kts | 254° |
| 2026-05-05 09:31 | 30.99008 | 120.80308 | 20664 ft | 405 kts | 254° |
| 2026-05-05 09:31 | 30.98215 | 120.77156 | 20799 ft | 407 kts | 254° |
| 2026-05-05 09:32 | 30.97420 | 120.73982 | 21184 ft | 409 kts | 254° |
| 2026-05-05 09:32 | 30.96627 | 120.70789 | 21569 ft | 411 kts | 254° |
| 2026-05-05 09:32 | 30.95827 | 120.67589 | 21954 ft | 413 kts | 254° |
| 2026-05-05 09:32 | 30.95020 | 120.64374 | 22326 ft | 415 kts | 254° |
| 2026-05-05 09:33 | 30.94204 | 120.61129 | 22683 ft | 417 kts | 254° |
| 2026-05-05 09:33 | 30.93387 | 120.57877 | 23049 ft | 419 kts | 254° |
| 2026-05-05 09:33 | 30.92570 | 120.54612 | 23371 ft | 421 kts | 254° |
| 2026-05-05 09:33 | 30.91745 | 120.51332 | 23701 ft | 423 kts | 254° |
| 2026-05-05 09:34 | 30.90892 | 120.48044 | 24030 ft | 425 kts | 252° |
| 2026-05-05 09:34 | 30.89711 | 120.44877 | 24330 ft | 428 kts | 242° |
| 2026-05-05 09:34 | 30.88011 | 120.42020 | 24648 ft | 432 kts | 231° |
| 2026-05-05 09:34 | 30.85799 | 120.39639 | 24963 ft | 436 kts | 219° |
| 2026-05-05 09:35 | 30.83306 | 120.37611 | 25286 ft | 438 kts | 216° |
| 2026-05-05 09:35 | 30.78255 | 120.33680 | 25864 ft | 441 kts | 217° |
| 2026-05-05 09:35 | 30.76555 | 120.32310 | 26061 ft | 441 kts | 217° |
| 2026-05-05 09:36 | 30.73214 | 120.29532 | 26551 ft | 440 kts | 218° |
| 2026-05-05 09:36 | 30.70747 | 120.27458 | 26958 ft | 437 kts | 218° |
| 2026-05-05 09:36 | 30.68312 | 120.25432 | 27357 ft | 435 kts | 218° |
| 2026-05-05 09:36 | 30.65846 | 120.23411 | 27751 ft | 433 kts | 218° |
| 2026-05-05 09:37 | 30.63377 | 120.21409 | 28126 ft | 431 kts | 218° |
| 2026-05-05 09:37 | 30.60926 | 120.19417 | 28499 ft | 429 kts | 218° |
| 2026-05-05 09:37 | 30.58493 | 120.17428 | 28884 ft | 427 kts | 218° |
| 2026-05-05 09:37 | 30.56077 | 120.15443 | 29240 ft | 425 kts | 218° |
| 2026-05-05 09:38 | 30.53674 | 120.13471 | 29578 ft | 423 kts | 218° |
| 2026-05-05 09:38 | 30.52081 | 120.12168 | 29814 ft | 421 kts | 218° |
| 2026-05-05 09:38 | 30.48890 | 120.09564 | 30050 ft | 418 kts | 218° |
| 2026-05-05 09:38 | 30.47316 | 120.08280 | 30043 ft | 418 kts | 218° |
| 2026-05-05 09:39 | 30.42498 | 120.04494 | 30036 ft | 420 kts | 214° |
| 2026-05-05 09:39 | 30.37439 | 120.01104 | 30043 ft | 420 kts | 213° |
| 2026-05-05 09:40 | 30.32361 | 119.97766 | 30045 ft | 421 kts | 213° |
| 2026-05-05 09:40 | 30.27280 | 119.94375 | 30053 ft | 420 kts | 214° |
| 2026-05-05 09:41 | 30.22219 | 119.91004 | 30056 ft | 420 kts | 213° |
| 2026-05-05 09:41 | 30.17152 | 119.87643 | 30014 ft | 420 kts | 213° |
| 2026-05-05 09:42 | 30.12078 | 119.84279 | 29996 ft | 420 kts | 213° |
| 2026-05-05 09:42 | 30.07015 | 119.80926 | 29995 ft | 420 kts | 213° |
| 2026-05-05 09:43 | 30.01952 | 119.77566 | 29993 ft | 420 kts | 214° |
| 2026-05-05 09:43 | 29.96911 | 119.74149 | 30014 ft | 420 kts | 214° |
| 2026-05-05 09:44 | 29.91874 | 119.70757 | 30069 ft | 419 kts | 214° |
| 2026-05-05 09:44 | 29.86839 | 119.67387 | 30085 ft | 419 kts | 214° |
| 2026-05-05 09:45 | 29.81970 | 119.63754 | 30078 ft | 416 kts | 218° |
| 2026-05-05 09:45 | 29.77235 | 119.60016 | 30068 ft | 416 kts | 218° |
| 2026-05-05 09:46 | 29.72437 | 119.56257 | 30033 ft | 417 kts | 218° |
| 2026-05-05 09:46 | 29.67640 | 119.52521 | 30005 ft | 417 kts | 218° |
| 2026-05-05 09:47 | 29.62946 | 119.48655 | 30015 ft | 412 kts | 225° |
| 2026-05-05 09:47 | 29.59022 | 119.43884 | 29994 ft | 410 kts | 231° |
| 2026-05-05 09:48 | 29.55266 | 119.38954 | 29999 ft | 411 kts | 231° |
| 2026-05-05 09:48 | 29.51436 | 119.34078 | 30028 ft | 410 kts | 230° |
| 2026-05-05 09:49 | 29.47604 | 119.29240 | 30052 ft | 410 kts | 230° |
| 2026-05-05 09:49 | 29.43789 | 119.24369 | 30041 ft | 410 kts | 230° |
| 2026-05-05 09:50 | 29.39967 | 119.19515 | 30048 ft | 410 kts | 230° |
| 2026-05-05 09:50 | 29.36132 | 119.14663 | 30042 ft | 410 kts | 230° |
| 2026-05-05 09:51 | 29.32305 | 119.09819 | 30026 ft | 411 kts | 230° |
| 2026-05-05 09:51 | 29.28485 | 119.05007 | 30017 ft | 411 kts | 230° |
| 2026-05-05 09:52 | 29.24644 | 119.00175 | 30064 ft | 409 kts | 230° |
| 2026-05-05 09:52 | 29.20815 | 118.95357 | 30033 ft | 410 kts | 230° |
| 2026-05-05 09:53 | 29.16976 | 118.90534 | 30023 ft | 410 kts | 230° |
| 2026-05-05 09:53 | 29.13135 | 118.85712 | 30014 ft | 410 kts | 230° |
| 2026-05-05 09:54 | 29.09295 | 118.80900 | 30011 ft | 410 kts | 230° |
| 2026-05-05 09:54 | 29.05448 | 118.76083 | 30014 ft | 410 kts | 230° |
| 2026-05-05 09:55 | 29.01593 | 118.71267 | 30043 ft | 410 kts | 230° |
| 2026-05-05 09:55 | 28.97757 | 118.66464 | 30076 ft | 409 kts | 230° |
| 2026-05-05 09:56 | 28.93913 | 118.61671 | 30091 ft | 409 kts | 230° |
| 2026-05-05 09:56 | 28.90069 | 118.56874 | 30102 ft | 409 kts | 230° |
| 2026-05-05 09:57 | 28.86247 | 118.52116 | 30113 ft | 408 kts | 230° |
| 2026-05-05 09:57 | 28.82410 | 118.47350 | 30111 ft | 408 kts | 230° |
| 2026-05-05 09:58 | 28.78575 | 118.42599 | 30104 ft | 407 kts | 230° |
| 2026-05-05 09:58 | 28.74744 | 118.37848 | 30069 ft | 407 kts | 230° |
| 2026-05-05 09:59 | 28.70919 | 118.33098 | 30043 ft | 406 kts | 230° |
| 2026-05-05 09:59 | 28.67098 | 118.28370 | 30036 ft | 406 kts | 230° |
| 2026-05-05 10:00 | 28.63269 | 118.23644 | 30033 ft | 405 kts | 230° |
| 2026-05-05 10:00 | 28.59446 | 118.18929 | 30048 ft | 405 kts | 230° |
| 2026-05-05 10:01 | 28.55629 | 118.14209 | 30040 ft | 405 kts | 231° |
| 2026-05-05 10:01 | 28.51839 | 118.09539 | 30085 ft | 404 kts | 230° |
| 2026-05-05 10:02 | 28.47994 | 118.04815 | 30073 ft | 404 kts | 231° |
| 2026-05-05 10:02 | 28.44205 | 118.00161 | 30113 ft | 403 kts | 230° |
| 2026-05-05 10:03 | 28.40348 | 117.95472 | 30080 ft | 404 kts | 230° |
| 2026-05-05 10:03 | 28.36475 | 117.90902 | 30037 ft | 405 kts | 230° |
| 2026-05-05 10:04 | 28.32572 | 117.86289 | 30022 ft | 405 kts | 230° |
| 2026-05-05 10:04 | 28.28657 | 117.81676 | 30030 ft | 405 kts | 230° |
| 2026-05-05 10:05 | 28.24757 | 117.77076 | 30076 ft | 405 kts | 230° |
| 2026-05-05 10:05 | 28.20849 | 117.72475 | 30084 ft | 405 kts | 230° |
| 2026-05-05 10:06 | 28.16945 | 117.67885 | 30105 ft | 405 kts | 229° |
| 2026-05-05 10:06 | 28.13022 | 117.63290 | 30079 ft | 406 kts | 230° |
| 2026-05-05 10:07 | 28.09106 | 117.58683 | 30053 ft | 406 kts | 230° |
| 2026-05-05 10:07 | 28.05181 | 117.54079 | 30073 ft | 406 kts | 230° |
| 2026-05-05 10:08 | 28.01256 | 117.49481 | 30057 ft | 407 kts | 229° |
| 2026-05-05 10:08 | 27.97307 | 117.44875 | 30053 ft | 408 kts | 230° |
| 2026-05-05 10:09 | 27.93367 | 117.40261 | 30097 ft | 407 kts | 230° |
| 2026-05-05 10:09 | 27.89427 | 117.35664 | 30151 ft | 406 kts | 230° |
| 2026-05-05 10:10 | 27.85496 | 117.31089 | 30145 ft | 405 kts | 230° |
| 2026-05-05 10:10 | 27.81573 | 117.26524 | 30140 ft | 404 kts | 230° |
| 2026-05-05 10:11 | 27.77669 | 117.21979 | 30101 ft | 402 kts | 230° |
| 2026-05-05 10:11 | 27.73803 | 117.17487 | 30057 ft | 402 kts | 230° |
| 2026-05-05 10:12 | 27.69906 | 117.12976 | 30047 ft | 402 kts | 230° |
| 2026-05-05 10:12 | 27.66004 | 117.08448 | 30049 ft | 403 kts | 230° |
| 2026-05-05 10:13 | 27.62085 | 117.03897 | 30049 ft | 405 kts | 230° |
| 2026-05-05 10:13 | 27.58144 | 116.99332 | 30045 ft | 408 kts | 230° |
| 2026-05-05 10:14 | 27.54174 | 116.94761 | 30073 ft | 408 kts | 230° |
| 2026-05-05 10:14 | 27.50211 | 116.90180 | 30130 ft | 408 kts | 230° |
| 2026-05-05 10:15 | 27.46279 | 116.85561 | 30136 ft | 408 kts | 231° |
| 2026-05-05 10:15 | 27.42352 | 116.80945 | 30135 ft | 408 kts | 231° |
| 2026-05-05 10:16 | 27.38402 | 116.76347 | 30126 ft | 408 kts | 231° |
| 2026-05-05 10:16 | 27.34469 | 116.71747 | 30108 ft | 408 kts | 231° |
| 2026-05-05 10:17 | 27.30552 | 116.67178 | 30064 ft | 409 kts | 231° |
| 2026-05-05 10:17 | 27.26603 | 116.62582 | 30029 ft | 409 kts | 231° |
| 2026-05-05 10:18 | 27.22656 | 116.57991 | 30043 ft | 408 kts | 231° |
| 2026-05-05 10:18 | 27.18753 | 116.53366 | 30024 ft | 408 kts | 232° |
| 2026-05-05 10:19 | 27.14901 | 116.48688 | 30032 ft | 408 kts | 232° |
| 2026-05-05 10:19 | 27.11054 | 116.44024 | 30062 ft | 407 kts | 232° |
| 2026-05-05 10:20 | 27.07205 | 116.39368 | 30097 ft | 407 kts | 232° |
| 2026-05-05 10:20 | 27.03355 | 116.34727 | 30090 ft | 407 kts | 232° |
| 2026-05-05 10:21 | 26.99506 | 116.30076 | 30079 ft | 406 kts | 232° |
| 2026-05-05 10:21 | 26.95656 | 116.25440 | 30076 ft | 406 kts | 232° |
| 2026-05-05 10:22 | 26.91815 | 116.20823 | 30075 ft | 404 kts | 232° |
| 2026-05-05 10:22 | 26.88019 | 116.16199 | 30075 ft | 402 kts | 233° |
| 2026-05-05 10:23 | 26.84245 | 116.11580 | 30043 ft | 402 kts | 233° |
| 2026-05-05 10:23 | 26.80459 | 116.06982 | 30000 ft | 401 kts | 233° |
| 2026-05-05 10:24 | 26.76700 | 116.02421 | 29986 ft | 401 kts | 233° |
| 2026-05-05 10:24 | 26.72919 | 115.97828 | 29990 ft | 401 kts | 234° |
| 2026-05-05 10:25 | 26.69132 | 115.93240 | 29989 ft | 403 kts | 234° |
| 2026-05-05 10:25 | 26.65325 | 115.88625 | 29988 ft | 404 kts | 234° |
| 2026-05-05 10:26 | 26.61504 | 115.84002 | 30000 ft | 405 kts | 234° |
| 2026-05-05 10:26 | 26.57670 | 115.79375 | 30057 ft | 405 kts | 234° |
| 2026-05-05 10:27 | 26.53849 | 115.74758 | 30076 ft | 405 kts | 234° |
| 2026-05-05 10:27 | 26.50024 | 115.70154 | 30074 ft | 403 kts | 234° |
| 2026-05-05 10:28 | 26.46229 | 115.65572 | 30063 ft | 402 kts | 234° |
| 2026-05-05 10:28 | 26.42430 | 115.61007 | 30017 ft | 401 kts | 234° |
| 2026-05-05 10:29 | 26.39279 | 115.57216 | 29985 ft | 401 kts | 234° |
| 2026-05-05 10:29 | 26.34843 | 115.51887 | 29986 ft | 401 kts | 234° |
| 2026-05-05 10:30 | 26.31687 | 115.48095 | 29985 ft | 402 kts | 234° |
| 2026-05-05 10:30 | 26.27871 | 115.43531 | 29985 ft | 403 kts | 234° |
| 2026-05-05 10:31 | 26.24044 | 115.38955 | 29988 ft | 404 kts | 234° |
| 2026-05-05 10:31 | 26.20222 | 115.34373 | 30028 ft | 404 kts | 234° |
| 2026-05-05 10:32 | 26.16391 | 115.29787 | 30012 ft | 405 kts | 234° |
| 2026-05-05 10:32 | 26.12543 | 115.25199 | 30012 ft | 406 kts | 234° |
| 2026-05-05 10:33 | 26.08688 | 115.20612 | 30055 ft | 406 kts | 234° |
| 2026-05-05 10:33 | 26.04859 | 115.16041 | 30063 ft | 406 kts | 234° |
| 2026-05-05 10:34 | 26.00970 | 115.11409 | 30037 ft | 408 kts | 234° |
| 2026-05-05 10:34 | 25.97124 | 115.06833 | 30025 ft | 409 kts | 234° |
| 2026-05-05 10:35 | 25.93236 | 115.02223 | 30070 ft | 408 kts | 234° |
| 2026-05-05 10:35 | 25.89354 | 114.97630 | 30111 ft | 408 kts | 234° |
| 2026-05-05 10:36 | 25.85484 | 114.93035 | 30107 ft | 407 kts | 234° |
| 2026-05-05 10:36 | 25.81359 | 114.88680 | 30066 ft | 419 kts | 224° |
| 2026-05-05 10:37 | 25.78776 | 114.87069 | 30030 ft | 433 kts | 212° |
| 2026-05-05 10:37 | 25.75857 | 114.86074 | 30022 ft | 445 kts | 202° |
| 2026-05-05 10:37 | 25.69751 | 114.84721 | 30023 ft | 449 kts | 200° |
| 2026-05-05 10:38 | 25.63654 | 114.83303 | 30024 ft | 447 kts | 202° |
| 2026-05-05 10:38 | 25.57596 | 114.81719 | 30022 ft | 448 kts | 202° |
| 2026-05-05 10:39 | 25.51505 | 114.80197 | 30049 ft | 450 kts | 201° |
| 2026-05-05 10:39 | 25.45429 | 114.78726 | 30105 ft | 449 kts | 202° |
| 2026-05-05 10:40 | 25.39295 | 114.77206 | 30120 ft | 448 kts | 202° |
| 2026-05-05 10:40 | 25.33261 | 114.75705 | 30114 ft | 447 kts | 202° |
| 2026-05-05 10:41 | 25.27181 | 114.74203 | 30077 ft | 447 kts | 202° |
| 2026-05-05 10:41 | 25.21110 | 114.72706 | 30034 ft | 448 kts | 201° |
| 2026-05-05 10:42 | 25.11986 | 114.70461 | 30032 ft | 448 kts | 201° |
| 2026-05-05 10:43 | 25.05913 | 114.68969 | 30070 ft | 447 kts | 201° |
| 2026-05-05 10:43 | 24.99832 | 114.67475 | 30059 ft | 448 kts | 201° |
| 2026-05-05 10:44 | 24.93756 | 114.65983 | 30072 ft | 447 kts | 201° |
| 2026-05-05 10:44 | 24.87673 | 114.64494 | 30066 ft | 448 kts | 201° |
| 2026-05-05 10:45 | 24.81606 | 114.63010 | 30120 ft | 446 kts | 201° |
| 2026-05-05 10:45 | 24.75547 | 114.61515 | 30101 ft | 446 kts | 201° |
| 2026-05-05 10:46 | 24.69580 | 114.59783 | 30061 ft | 433 kts | 211° |
| 2026-05-05 10:46 | 24.66963 | 114.58383 | 29919 ft | 417 kts | 217° |
| 2026-05-05 10:46 | 24.64474 | 114.56823 | 29475 ft | 409 kts | 219° |
| 2026-05-05 10:46 | 24.62040 | 114.55203 | 28715 ft | 409 kts | 219° |
| 2026-05-05 10:47 | 24.59595 | 114.53567 | 27832 ft | 414 kts | 218° |
| 2026-05-05 10:47 | 24.57094 | 114.51945 | 26916 ft | 420 kts | 217° |
| 2026-05-05 10:47 | 24.54544 | 114.50348 | 26035 ft | 425 kts | 216° |
| 2026-05-05 10:47 | 24.51965 | 114.48760 | 25365 ft | 423 kts | 216° |
| 2026-05-05 10:48 | 24.49417 | 114.47184 | 24748 ft | 420 kts | 216° |
| 2026-05-05 10:48 | 24.46890 | 114.45596 | 24107 ft | 417 kts | 216° |
| 2026-05-05 10:48 | 24.44378 | 114.44002 | 23494 ft | 415 kts | 216° |
| 2026-05-05 10:48 | 24.41893 | 114.42430 | 22927 ft | 411 kts | 216° |
| 2026-05-05 10:49 | 24.39420 | 114.40872 | 22371 ft | 407 kts | 216° |
| 2026-05-05 10:49 | 24.36973 | 114.39338 | 21821 ft | 403 kts | 216° |
| 2026-05-05 10:49 | 24.34547 | 114.37819 | 21274 ft | 399 kts | 215° |
| 2026-05-05 10:49 | 24.32151 | 114.36321 | 20736 ft | 395 kts | 215° |
| 2026-05-05 10:50 | 24.29774 | 114.34834 | 20196 ft | 391 kts | 215° |
| 2026-05-05 10:50 | 24.27423 | 114.33359 | 19766 ft | 388 kts | 215° |
| 2026-05-05 10:50 | 24.25081 | 114.31884 | 19688 ft | 388 kts | 215° |
| 2026-05-05 10:50 | 24.22747 | 114.30421 | 19683 ft | 387 kts | 215° |
| 2026-05-05 10:51 | 24.20419 | 114.28968 | 19496 ft | 382 kts | 215° |
| 2026-05-05 10:51 | 24.18122 | 114.27537 | 18955 ft | 378 kts | 215° |
| 2026-05-05 10:51 | 24.15842 | 114.26110 | 18358 ft | 376 kts | 216° |
| 2026-05-05 10:51 | 24.13579 | 114.24692 | 17816 ft | 373 kts | 215° |
| 2026-05-05 10:52 | 24.11335 | 114.23294 | 17271 ft | 369 kts | 215° |
| 2026-05-05 10:52 | 24.09134 | 114.21884 | 16700 ft | 364 kts | 218° |
| 2026-05-05 10:52 | 24.07226 | 114.20124 | 16134 ft | 355 kts | 230° |
| 2026-05-05 10:52 | 24.05611 | 114.18141 | 15573 ft | 351 kts | 233° |
| 2026-05-05 10:53 | 24.04057 | 114.16092 | 14988 ft | 349 kts | 233° |
| 2026-05-05 10:53 | 24.02516 | 114.14048 | 14412 ft | 347 kts | 233° |
| 2026-05-05 10:53 | 24.00968 | 114.12034 | 13846 ft | 345 kts | 232° |
| 2026-05-05 10:53 | 23.99408 | 114.10055 | 13279 ft | 343 kts | 231° |
| 2026-05-05 10:54 | 23.97845 | 114.08092 | 12690 ft | 341 kts | 231° |
| 2026-05-05 10:54 | 23.96288 | 114.06134 | 12120 ft | 341 kts | 231° |
| 2026-05-05 10:54 | 23.94745 | 114.04169 | 11776 ft | 342 kts | 231° |
| 2026-05-05 10:54 | 23.93212 | 114.02181 | 11751 ft | 343 kts | 231° |
| 2026-05-05 10:55 | 23.91675 | 114.00186 | 11766 ft | 343 kts | 231° |
| 2026-05-05 10:55 | 23.90136 | 113.98199 | 11768 ft | 343 kts | 231° |
| 2026-05-05 10:55 | 23.88589 | 113.96209 | 11768 ft | 343 kts | 231° |
| 2026-05-05 10:55 | 23.87049 | 113.94233 | 11773 ft | 343 kts | 231° |
| 2026-05-05 10:56 | 23.85499 | 113.92245 | 11759 ft | 343 kts | 231° |
| 2026-05-05 10:56 | 23.83959 | 113.90260 | 11768 ft | 343 kts | 232° |
| 2026-05-05 10:56 | 23.82718 | 113.88054 | 11747 ft | 341 kts | 248° |
| 2026-05-05 10:56 | 23.82002 | 113.85594 | 11768 ft | 341 kts | 255° |
| 2026-05-05 10:57 | 23.81427 | 113.83082 | 11778 ft | 341 kts | 256° |
| 2026-05-05 10:57 | 23.80879 | 113.80566 | 11777 ft | 341 kts | 256° |
| 2026-05-05 10:57 | 23.80305 | 113.78053 | 11776 ft | 341 kts | 255° |
| 2026-05-05 10:57 | 23.79690 | 113.75549 | 11769 ft | 341 kts | 255° |
| 2026-05-05 10:58 | 23.79056 | 113.73060 | 11771 ft | 341 kts | 254° |
| 2026-05-05 10:58 | 23.78419 | 113.70565 | 11774 ft | 341 kts | 255° |
| 2026-05-05 10:58 | 23.77794 | 113.68066 | 11776 ft | 341 kts | 255° |
| 2026-05-05 10:58 | 23.77176 | 113.65568 | 11777 ft | 341 kts | 255° |
| 2026-05-05 10:59 | 23.76559 | 113.63073 | 11778 ft | 341 kts | 255° |
| 2026-05-05 10:59 | 23.75938 | 113.60570 | 11777 ft | 341 kts | 255° |
| 2026-05-05 10:59 | 23.75316 | 113.58076 | 11782 ft | 341 kts | 255° |
| 2026-05-05 10:59 | 23.74699 | 113.55610 | 11772 ft | 341 kts | 255° |
| 2026-05-05 11:00 | 23.74081 | 113.53134 | 11739 ft | 325 kts | 255° |
| 2026-05-05 11:00 | 23.73512 | 113.50856 | 11736 ft | 307 kts | 255° |
| 2026-05-05 11:00 | 23.72967 | 113.48674 | 11738 ft | 290 kts | 255° |
| 2026-05-05 11:00 | 23.72447 | 113.46593 | 11740 ft | 279 kts | 255° |
| 2026-05-05 11:01 | 23.71942 | 113.44567 | 11745 ft | 274 kts | 255° |
| 2026-05-05 11:01 | 23.71443 | 113.42567 | 11563 ft | 272 kts | 255° |
| 2026-05-05 11:01 | 23.70945 | 113.40580 | 11160 ft | 273 kts | 255° |
| 2026-05-05 11:01 | 23.70441 | 113.38578 | 10736 ft | 273 kts | 255° |
| 2026-05-05 11:02 | 23.69940 | 113.36584 | 10344 ft | 272 kts | 255° |
| 2026-05-05 11:02 | 23.69442 | 113.34600 | 9928 ft | 272 kts | 255° |
| 2026-05-05 11:02 | 23.68942 | 113.32607 | 9511 ft | 272 kts | 255° |
| 2026-05-05 11:02 | 23.68444 | 113.30623 | 9104 ft | 272 kts | 255° |
| 2026-05-05 11:03 | 23.67943 | 113.28630 | 8697 ft | 272 kts | 254° |
| 2026-05-05 11:03 | 23.67382 | 113.26663 | 8301 ft | 271 kts | 247° |
| 2026-05-05 11:03 | 23.66381 | 113.24928 | 7874 ft | 272 kts | 227° |
| 2026-05-05 11:03 | 23.64858 | 113.23731 | 7489 ft | 272 kts | 205° |
| 2026-05-05 11:04 | 23.63043 | 113.23173 | 7129 ft | 271 kts | 192° |
| 2026-05-05 11:04 | 23.61179 | 113.22842 | 6759 ft | 271 kts | 190° |
| 2026-05-05 11:04 | 23.59322 | 113.22505 | 6400 ft | 270 kts | 192° |
| 2026-05-05 11:04 | 23.57495 | 113.22107 | 6062 ft | 268 kts | 193° |
| 2026-05-05 11:05 | 23.55682 | 113.21672 | 5886 ft | 266 kts | 193° |
| 2026-05-05 11:05 | 23.53867 | 113.21246 | 5889 ft | 267 kts | 193° |
| 2026-05-05 11:05 | 23.52049 | 113.20841 | 5893 ft | 267 kts | 192° |
| 2026-05-05 11:05 | 23.50251 | 113.20447 | 5895 ft | 267 kts | 192° |
| 2026-05-05 11:06 | 23.48431 | 113.20043 | 5894 ft | 267 kts | 193° |
| 2026-05-05 11:06 | 23.46626 | 113.19638 | 5818 ft | 262 kts | 193° |
| 2026-05-05 11:06 | 23.44876 | 113.19244 | 5721 ft | 251 kts | 192° |
| 2026-05-05 11:06 | 23.43203 | 113.18869 | 5603 ft | 241 kts | 192° |
| 2026-05-05 11:07 | 23.41580 | 113.18477 | 5330 ft | 237 kts | 194° |
| 2026-05-05 11:07 | 23.39974 | 113.18075 | 4999 ft | 237 kts | 193° |
| 2026-05-05 11:07 | 23.38367 | 113.17720 | 4699 ft | 235 kts | 191° |
| 2026-05-05 11:07 | 23.36798 | 113.17404 | 4574 ft | 224 kts | 191° |
| 2026-05-05 11:08 | 23.35305 | 113.17101 | 4429 ft | 214 kts | 191° |
| 2026-05-05 11:08 | 23.33848 | 113.16802 | 4128 ft | 212 kts | 191° |
| 2026-05-05 11:08 | 23.32401 | 113.16499 | 3807 ft | 211 kts | 191° |
| 2026-05-05 11:08 | 23.30963 | 113.16190 | 3490 ft | 211 kts | 191° |
| 2026-05-05 11:09 | 23.29529 | 113.15872 | 3169 ft | 210 kts | 190° |
| 2026-05-05 11:09 | 23.28104 | 113.15544 | 2854 ft | 209 kts | 191° |
| 2026-05-05 11:09 | 23.26682 | 113.15208 | 2541 ft | 209 kts | 191° |
| 2026-05-05 11:09 | 23.25266 | 113.14876 | 2228 ft | 208 kts | 188° |
| 2026-05-05 11:10 | 23.23849 | 113.14951 | 1954 ft | 203 kts | 158° |
| 2026-05-05 11:10 | 23.22704 | 113.15818 | 1966 ft | 203 kts | 128° |
| 2026-05-05 11:10 | 23.22104 | 113.17189 | 1989 ft | 203 kts | 105° |
| 2026-05-05 11:10 | 23.21779 | 113.18659 | 1996 ft | 202 kts | 102° |
| 2026-05-05 11:11 | 23.21491 | 113.20156 | 1997 ft | 203 kts | 102° |
| 2026-05-05 11:11 | 23.21372 | 113.21675 | 1987 ft | 203 kts | 84° |
| 2026-05-05 11:11 | 23.21636 | 113.23184 | 1989 ft | 203 kts | 78° |
| 2026-05-05 11:11 | 23.22097 | 113.24627 | 1979 ft | 205 kts | 58° |
| 2026-05-05 11:12 | 23.22999 | 113.25827 | 2002 ft | 206 kts | 49° |
| 2026-05-05 11:12 | 23.24046 | 113.26892 | 1994 ft | 207 kts | 35° |
| 2026-05-05 11:12 | 23.25316 | 113.27562 | 2045 ft | 196 kts | 20° |
| 2026-05-05 11:12 | 23.26558 | 113.27945 | 2018 ft | 176 kts | 16° |
| 2026-05-05 11:13 | 23.27696 | 113.28265 | 1988 ft | 165 kts | 16° |
| 2026-05-05 11:13 | 23.28777 | 113.28556 | 1750 ft | 154 kts | 15° |
| 2026-05-05 11:13 | 23.29808 | 113.28835 | 1548 ft | 152 kts | 15° |
| 2026-05-05 11:13 | 23.30835 | 113.29113 | 1337 ft | 152 kts | 15° |
| 2026-05-05 11:14 | 23.31856 | 113.29390 | 1132 ft | 151 kts | 15° |
| 2026-05-05 11:14 | 23.32871 | 113.29664 | 903 ft | 150 kts | 15° |
| 2026-05-05 11:14 | 23.33884 | 113.29938 | 704 ft | 150 kts | 15° |
| 2026-05-05 11:14 | 23.34897 | 113.30218 | 524 ft | 150 kts | 16° |
| 2026-05-05 11:15 | 23.35906 | 113.30498 | 313 ft | 149 kts | 15° |
| 2026-05-05 11:15 | 23.36913 | 113.30765 | 135 ft | 149 kts | 15° |
| 2026-05-05 11:15 | 23.37902 | 113.31028 | 65 ft | 137 kts | 15° |
| 2026-05-05 11:15 | 23.38674 | 113.31243 | 64 ft | 88 kts | 14° |
| 2026-05-05 11:16 | 23.39098 | 113.31354 | 64 ft | 21 kts | 14° |
| 2026-05-05 11:16 | 23.39234 | 113.31390 | 64 ft | 22 kts | 12° |
| 2026-05-05 11:16 | 23.39394 | 113.31395 | 64 ft | 24 kts | 351° |
| 2026-05-05 11:16 | 23.39500 | 113.31363 | 64 ft | 0 kts | 341° |
| 2026-05-05 11:17 | 23.39501 | 113.31363 | 64 ft | 1 kts | 341° |
| 2026-05-05 11:18 | 23.39519 | 113.31356 | 64 ft | 5 kts | 341° |
| 2026-05-05 11:18 | 23.39561 | 113.31340 | 64 ft | 8 kts | 342° |
| 2026-05-05 11:18 | 23.39611 | 113.31324 | 64 ft | 9 kts | 344° |
| 2026-05-05 11:18 | 23.39682 | 113.31310 | 64 ft | 12 kts | 352° |
| 2026-05-05 11:19 | 23.39738 | 113.31292 | 64 ft | 6 kts | 309° |
| 2026-05-05 11:19 | 23.39754 | 113.31234 | 64 ft | 10 kts | 281° |
| 2026-05-05 11:19 | 23.39770 | 113.31149 | 64 ft | 13 kts | 283° |
| 2026-05-05 11:19 | 23.39786 | 113.31078 | 64 ft | 8 kts | 284° |
| 2026-05-05 11:20 | 23.39788 | 113.31068 | 64 ft | 0 kts | 284° |
| 2026-05-05 11:22 | 23.39789 | 113.31063 | 64 ft | 2 kts | 284° |
| 2026-05-05 11:22 | 23.39793 | 113.31047 | 64 ft | 5 kts | 284° |
| 2026-05-05 11:22 | 23.39813 | 113.30981 | 64 ft | 9 kts | 303° |
| 2026-05-05 11:23 | 23.39852 | 113.30957 | 64 ft | 11 kts | 357° |
| 2026-05-05 11:23 | 23.39959 | 113.30974 | 64 ft | 12 kts | 348° |
| 2026-05-05 11:23 | 23.39994 | 113.30930 | 64 ft | 13 kts | 288° |
| 2026-05-05 11:23 | 23.40012 | 113.30819 | 64 ft | 11 kts | 252° |
| 2026-05-05 11:24 | 23.39973 | 113.30782 | 64 ft | 12 kts | 216° |
| 2026-05-05 11:24 | 23.39960 | 113.30680 | 64 ft | 12 kts | 283° |
| 2026-05-05 11:24 | 23.39971 | 113.30634 | 64 ft | 9 kts | 285° |
| 2026-05-05 11:24 | 23.40017 | 113.30563 | 64 ft | 8 kts | 322° |
| 2026-05-05 11:25 | 23.40054 | 113.30532 | 64 ft | 3 kts | 322° |
| 2026-05-05 11:25 | 23.40066 | 113.30522 | 64 ft | 3 kts | 322° |
| 2026-05-05 11:25 | 23.40071 | 113.30518 | 64 ft | 0 kts | 322° |